Time;durP1;ratioP1;P1;durP2;ratioP2;P2;SDS_P1;SDS_P2;PMS_P1;PMS_P2;Temp;Humidity;BMP_temperature;BMP_pressure;BME280_temperature;BME280_humidity;BME280_pressure;Samples;Min_cycle;Max_cycle;Signal;HPM_P1;HPM_P2
2023/08/26 00:00:28;;;;;;;2.60;2.03;;;;;;;25.81;66.59;97008.50;5039673;28;20446;-28
2023/08/26 00:02:56;;;;;;;2.60;2.30;;;;;;;25.81;66.35;97002.53;5043106;28;20198;-28
2023/08/26 00:05:22;;;;;;;2.40;2.20;;;;;;;25.80;66.43;96991.34;5046927;28;20201;-28
2023/08/26 00:07:49;;;;;;;2.30;2.10;;;;;;;25.80;66.60;96985.34;5038462;28;20654;-29
2023/08/26 00:10:15;;;;;;;3.78;1.95;;;;;;;25.80;66.59;96982.75;5047373;28;20308;-28
2023/08/26 00:12:43;;;;;;;2.20;2.00;;;;;;;25.77;66.64;96975.03;5044427;28;20263;-28
2023/08/26 00:15:09;;;;;;;1.83;1.73;;;;;;;25.79;66.91;96957.88;5040121;28;20205;-28
2023/08/26 00:17:36;;;;;;;2.42;2.22;;;;;;;25.79;66.81;96963.91;5045147;28;20251;-28
2023/08/26 00:20:05;;;;;;;2.20;2.00;;;;;;;25.79;66.73;96975.91;5048520;28;20227;-28
2023/08/26 00:22:33;;;;;;;2.30;2.10;;;;;;;25.78;66.70;96974.19;5041257;28;20202;-28
2023/08/26 00:24:59;;;;;;;2.35;2.15;;;;;;;25.80;66.86;96977.63;5040591;28;20660;-29
2023/08/26 00:27:26;;;;;;;2.67;2.10;;;;;;;25.80;66.89;96978.50;5040964;28;20327;-28
2023/08/26 00:29:52;;;;;;;2.22;2.03;;;;;;;25.79;66.91;96968.19;5042280;28;20249;-28
2023/08/26 00:32:19;;;;;;;2.35;2.13;;;;;;;25.79;66.95;96953.59;5035616;28;20268;-31
2023/08/26 00:34:45;;;;;;;2.87;2.23;;;;;;;25.79;66.84;96950.16;5043169;28;20206;-28
2023/08/26 00:37:12;;;;;;;1.77;1.67;;;;;;;25.78;66.86;96938.16;5042318;28;20239;-28
2023/08/26 00:39:39;;;;;;;2.40;2.20;;;;;;;25.79;66.78;96943.31;5040254;28;20245;-28
2023/08/26 00:42:05;;;;;;;2.83;2.25;;;;;;;25.80;66.63;96949.28;5038786;28;20208;-30
2023/08/26 00:44:32;;;;;;;2.40;2.20;;;;;;;25.79;66.79;96952.75;5038804;28;20205;-28
2023/08/26 00:46:59;;;;;;;2.40;2.20;;;;;;;25.79;66.50;96953.59;5039772;28;20213;-28
2023/08/26 00:49:26;;;;;;;2.10;1.90;;;;;;;25.78;66.82;96964.75;5044808;28;20224;-30
2023/08/26 00:51:52;;;;;;;1.95;1.80;;;;;;;25.79;66.46;96961.34;5035545;28;20717;-28
2023/08/26 00:54:19;;;;;;;2.20;2.00;;;;;;;25.79;66.53;96958.75;5031835;28;20718;-28
2023/08/26 00:56:45;;;;;;;2.42;2.00;;;;;;;25.78;66.36;96953.59;5029849;28;20288;-28
2023/08/26 00:59:12;;;;;;;2.43;2.17;;;;;;;25.78;66.25;96951.03;5038423;28;20285;-29
2023/08/26 01:01:39;;;;;;;2.63;2.07;;;;;;;25.76;66.57;96958.75;5042862;28;20269;-28
2023/08/26 01:04:06;;;;;;;2.33;2.13;;;;;;;25.76;66.55;96956.16;5024940;28;20552;-28
2023/08/26 01:06:32;;;;;;;2.03;1.83;;;;;;;25.78;66.30;96953.59;5037329;28;20297;-28
2023/08/26 01:08:59;;;;;;;2.20;2.03;;;;;;;25.71;66.47;96937.28;5044169;28;20662;-28
2023/08/26 01:11:37;;;;;;;2.35;2.15;;;;;;;25.76;66.45;96961.31;5049873;28;20197;-28
2023/08/26 01:14:26;;;;;;;2.20;2.00;;;;;;;25.77;66.58;96954.44;5052572;28;20224;-28
2023/08/26 01:16:53;;;;;;;2.30;2.10;;;;;;;25.75;66.96;96957.00;5047408;28;20205;-28
2023/08/26 01:19:40;;;;;;;2.13;1.92;;;;;;;25.75;66.97;96957.00;5032675;28;20221;-28
2023/08/26 01:22:09;;;;;;;2.10;1.90;;;;;;;25.76;66.79;96965.59;5036690;28;20206;-28
2023/08/26 01:24:39;;;;;;;2.17;1.97;;;;;;;25.75;66.91;96956.16;5051533;28;20208;-28
2023/08/26 01:27:06;;;;;;;2.33;2.13;;;;;;;25.77;67.10;96951.88;5037807;28;20206;-31
2023/08/26 01:29:32;;;;;;;2.27;2.10;;;;;;;25.76;67.36;96951.03;5050443;28;20221;-32
2023/08/26 01:32:26;;;;;;;2.30;2.10;;;;;;;25.76;67.22;96956.16;5044897;28;20205;-28
2023/08/26 01:34:56;;;;;;;1.70;1.60;;;;;;;25.76;67.12;96955.31;5045607;28;20231;-28
2023/08/26 01:37:23;;;;;;;1.92;1.80;;;;;;;25.69;67.27;96946.69;5042720;28;20209;-28
2023/08/26 01:39:51;;;;;;;2.25;2.05;;;;;;;25.77;67.16;96968.19;5018013;28;20248;-30
2023/08/26 01:42:19;;;;;;;2.10;1.90;;;;;;;25.77;67.11;96975.91;5039315;28;20300;-28
2023/08/26 01:44:46;;;;;;;1.80;1.70;;;;;;;25.75;67.51;96959.56;5036605;28;20579;-28
2023/08/26 01:47:12;;;;;;;2.20;2.10;;;;;;;25.78;67.35;96956.19;5045363;28;20243;-29
2023/08/26 01:49:39;;;;;;;2.10;1.90;;;;;;;25.77;67.49;96962.16;5042665;28;20222;-28
2023/08/26 01:52:05;;;;;;;2.10;1.90;;;;;;;25.78;67.37;96957.00;5033666;28;20924;-28
2023/08/26 01:54:32;;;;;;;2.20;2.00;;;;;;;25.78;67.04;96951.88;5033417;28;20221;-28
2023/08/26 01:56:58;;;;;;;2.30;2.10;;;;;;;25.78;67.51;96949.28;5039225;28;20415;-28
2023/08/26 01:59:25;;;;;;;1.97;1.80;;;;;;;25.79;67.24;96956.19;5041368;28;20222;-30
2023/08/26 02:01:51;;;;;;;1.77;1.67;;;;;;;25.79;67.27;96968.19;5037461;28;20208;-28
2023/08/26 02:04:19;;;;;;;2.20;2.03;;;;;;;25.78;67.38;96979.34;5041937;28;20284;-28
2023/08/26 02:06:46;;;;;;;1.92;1.83;;;;;;;25.79;67.38;96984.50;5033501;28;20226;-28
2023/08/26 02:09:12;;;;;;;1.90;1.70;;;;;;;25.80;67.38;96987.91;5040710;28;20249;-28
2023/08/26 02:11:39;;;;;;;1.90;1.80;;;;;;;25.80;67.21;96987.91;5036590;28;20197;-28
2023/08/26 02:14:05;;;;;;;2.00;1.90;;;;;;;25.80;67.55;96995.63;5045273;28;20213;-29
2023/08/26 02:16:32;;;;;;;1.98;1.88;;;;;;;25.80;67.32;96996.50;5037689;28;20210;-28
2023/08/26 02:18:58;;;;;;;2.05;1.85;;;;;;;25.81;67.43;96994.81;5032786;28;20240;-31
2023/08/26 02:21:25;;;;;;;1.90;1.80;;;;;;;25.81;67.29;96997.38;5040300;28;20233;-28
2023/08/26 02:23:52;;;;;;;1.92;1.83;;;;;;;25.81;67.58;96994.81;5032965;28;20244;-30
2023/08/26 02:26:18;;;;;;;2.37;2.17;;;;;;;25.80;67.10;97001.66;5039157;28;20243;-29
2023/08/26 02:28:45;;;;;;;2.33;2.13;;;;;;;25.77;67.33;96993.91;5041212;28;20663;-28
2023/08/26 02:31:11;;;;;;;2.08;1.95;;;;;;;25.81;67.20;97002.53;5041584;28;20198;-28
2023/08/26 02:33:38;;;;;;;1.70;1.60;;;;;;;25.81;67.33;97003.38;5043741;28;20213;-29
2023/08/26 02:36:04;;;;;;;2.20;2.00;;;;;;;25.82;67.24;97009.38;5047867;28;20270;-30
2023/08/26 02:38:31;;;;;;;1.90;1.80;;;;;;;25.81;67.12;97005.94;5046771;28;20233;-28
2023/08/26 02:40:58;;;;;;;1.67;1.58;;;;;;;25.81;67.21;97000.78;5037967;28;20304;-28
2023/08/26 02:43:24;;;;;;;1.97;1.77;;;;;;;25.82;67.17;97006.81;5037957;28;20194;-28
2023/08/26 02:45:52;;;;;;;1.83;1.73;;;;;;;25.82;67.30;97004.25;5047572;28;20241;-30
2023/08/26 02:48:20;;;;;;;2.20;2.00;;;;;;;25.81;67.37;97005.09;5034830;28;20300;-28
2023/08/26 02:50:46;;;;;;;2.08;1.90;;;;;;;25.81;67.29;97023.13;5034846;28;20743;-28
2023/08/26 02:53:13;;;;;;;2.15;1.88;;;;;;;25.82;67.07;97017.09;5039158;28;20222;-28
2023/08/26 02:55:40;;;;;;;1.90;1.80;;;;;;;25.83;67.54;97016.25;5040486;28;20234;-28
2023/08/26 02:58:06;;;;;;;1.73;1.63;;;;;;;25.82;67.29;97017.09;5037308;28;20206;-28
2023/08/26 03:00:33;;;;;;;1.92;1.83;;;;;;;25.83;67.31;97021.38;5032989;28;20287;-28
2023/08/26 03:03:00;;;;;;;1.80;1.70;;;;;;;25.82;67.45;97032.56;5040418;28;20224;-32
2023/08/26 03:05:26;;;;;;;1.80;1.70;;;;;;;25.83;67.25;97029.13;5044177;28;20254;-28
2023/08/26 03:07:53;;;;;;;2.10;1.90;;;;;;;25.82;67.12;97037.69;5039060;28;20201;-28
2023/08/26 03:10:20;;;;;;;2.30;1.80;;;;;;;25.82;67.30;97046.28;5038080;28;20730;-31
2023/08/26 03:12:46;;;;;;;1.95;1.85;;;;;;;25.82;67.28;97053.16;5045429;28;20232;-29
2023/08/26 03:15:13;;;;;;;1.70;1.60;;;;;;;25.82;67.22;97050.56;5049819;28;20209;-28
2023/08/26 03:17:40;;;;;;;2.20;2.00;;;;;;;25.82;67.33;97046.28;5032318;28;20201;-28
2023/08/26 03:20:07;;;;;;;1.90;1.80;;;;;;;25.80;67.36;97040.28;5043575;28;20217;-28
2023/08/26 03:22:33;;;;;;;1.90;1.80;;;;;;;25.82;67.38;97041.16;5043261;28;20205;-28
2023/08/26 03:25:00;;;;;;;1.90;1.80;;;;;;;25.82;67.32;97045.44;5052106;28;20201;-28
2023/08/26 03:27:26;;;;;;;3.83;1.80;;;;;;;25.82;67.33;97037.69;5044241;28;20508;-28
2023/08/26 03:29:53;;;;;;;1.70;1.60;;;;;;;25.82;67.17;97040.28;5045754;28;20220;-30
2023/08/26 03:32:20;;;;;;;1.90;1.80;;;;;;;25.82;67.43;97045.44;5042472;28;20256;-28
2023/08/26 03:34:47;;;;;;;2.07;1.90;;;;;;;25.81;67.38;97061.72;5043056;28;20278;-29
2023/08/26 03:37:13;;;;;;;1.80;1.70;;;;;;;25.82;67.35;97081.47;5033681;28;20201;-29
2023/08/26 03:39:40;;;;;;;1.90;1.80;;;;;;;25.82;67.21;97107.22;5033036;28;20734;-29
2023/08/26 03:42:06;;;;;;;2.20;1.87;;;;;;;25.81;67.48;97114.06;5046314;28;20236;-28
2023/08/26 03:44:33;;;;;;;2.10;1.90;;;;;;;25.81;67.54;97113.22;5032891;28;20232;-28
2023/08/26 03:46:59;;;;;;;1.90;1.80;;;;;;;25.80;67.66;97101.19;5046093;28;20201;-30
2023/08/26 03:49:26;;;;;;;2.03;1.93;;;;;;;25.81;67.32;97102.94;5035560;28;20216;-28
2023/08/26 03:51:52;;;;;;;1.80;1.70;;;;;;;25.74;67.30;97096.00;5040712;28;20620;-28
2023/08/26 03:54:19;;;;;;;1.90;1.80;;;;;;;25.80;67.63;97119.19;5040297;28;20213;-28
2023/08/26 03:56:46;;;;;;;1.93;1.80;;;;;;;25.81;67.36;97114.06;5048047;28;20284;-28
2023/08/26 03:59:12;;;;;;;2.67;1.77;;;;;;;25.81;67.46;97106.34;5041570;28;20274;-30
2023/08/26 04:01:39;;;;;;;1.70;1.60;;;;;;;25.81;67.54;97131.25;5039026;28;20206;-28
2023/08/26 04:04:05;;;;;;;1.73;1.60;;;;;;;25.80;67.60;97139.78;5048423;28;20193;-28
2023/08/26 04:06:33;;;;;;;1.80;1.70;;;;;;;25.81;67.74;97146.69;5042581;28;20251;-28
2023/08/26 04:09:02;;;;;;;1.93;1.80;;;;;;;25.80;67.42;97145.81;5036843;28;20221;-28
2023/08/26 04:11:29;;;;;;;2.03;1.90;;;;;;;25.81;67.66;97141.53;5033068;28;20201;-29
2023/08/26 04:13:56;;;;;;;1.80;1.70;;;;;;;25.79;67.54;97122.63;5035640;28;20221;-28
2023/08/26 04:16:22;;;;;;;2.05;1.88;;;;;;;25.81;67.46;97128.66;5034198;28;20210;-28
2023/08/26 04:18:49;;;;;;;2.20;2.10;;;;;;;25.81;67.40;97137.22;5040519;28;20239;-28
2023/08/26 04:21:15;;;;;;;1.67;1.57;;;;;;;25.79;67.52;97146.69;5047544;28;20205;-29
2023/08/26 04:23:42;;;;;;;1.70;1.60;;;;;;;25.80;67.22;97150.09;5036470;28;20201;-28
2023/08/26 04:26:09;;;;;;;2.20;2.00;;;;;;;25.79;67.37;97146.69;5052435;28;20243;-27
2023/08/26 04:28:35;;;;;;;1.77;1.67;;;;;;;25.80;67.15;97143.25;5036757;28;20293;-28
2023/08/26 04:31:02;;;;;;;1.80;1.70;;;;;;;25.80;67.01;97139.78;5035037;28;20699;-29
2023/08/26 04:33:29;;;;;;;1.73;1.63;;;;;;;25.80;67.12;97143.25;5043581;28;20248;-28
2023/08/26 04:35:56;;;;;;;1.73;1.63;;;;;;;25.80;67.32;97152.66;5040721;28;20200;-29
2023/08/26 04:38:22;;;;;;;1.90;1.80;;;;;;;25.72;67.49;97146.63;5043952;28;20233;-35
2023/08/26 04:40:49;;;;;;;1.90;1.80;;;;;;;25.79;67.61;97158.69;5040231;28;20259;-28
2023/08/26 04:43:16;;;;;;;1.73;1.63;;;;;;;25.79;67.44;97164.69;5036336;28;20252;-28
2023/08/26 04:45:43;;;;;;;1.70;1.60;;;;;;;25.79;67.55;97164.69;5040124;28;20225;-28
2023/08/26 04:48:10;;;;;;;1.87;1.77;;;;;;;25.80;67.63;97168.13;5042619;28;20201;-28
2023/08/26 04:50:37;;;;;;;1.70;1.60;;;;;;;25.79;67.40;97175.00;5034000;28;20222;-28
2023/08/26 04:53:04;;;;;;;1.87;1.77;;;;;;;25.80;67.60;97168.13;5036511;28;20197;-28
2023/08/26 04:55:31;;;;;;;1.73;1.63;;;;;;;25.79;67.71;97161.25;5034360;28;20293;-28
2023/08/26 04:57:59;;;;;;;1.80;1.70;;;;;;;25.80;67.45;97168.13;5038511;28;20677;-30
2023/08/26 05:00:26;;;;;;;1.90;1.80;;;;;;;25.79;67.74;97151.84;5035984;28;20222;-28
2023/08/26 05:02:53;;;;;;;1.73;1.63;;;;;;;25.79;67.65;97149.25;5034556;28;20201;-30
2023/08/26 05:05:20;;;;;;;1.90;1.80;;;;;;;25.79;67.37;97154.41;5036837;28;20202;-28
2023/08/26 05:07:47;;;;;;;1.80;1.70;;;;;;;25.80;67.76;97163.84;5047658;28;20201;-28
2023/08/26 05:10:13;;;;;;;1.95;1.85;;;;;;;25.80;67.54;97168.13;5037481;28;20225;-31
2023/08/26 05:12:40;;;;;;;1.60;1.50;;;;;;;25.80;67.64;97173.25;5036258;28;20201;-28
2023/08/26 05:15:07;;;;;;;2.00;1.80;;;;;;;25.80;67.58;97174.13;5039444;28;20715;-28
2023/08/26 05:17:33;;;;;;;1.80;1.70;;;;;;;25.73;67.39;97153.50;5029642;28;20649;-29
2023/08/26 05:20:00;;;;;;;1.97;1.77;;;;;;;25.81;67.85;97177.59;5031271;28;20225;-30
2023/08/26 05:22:26;;;;;;;5.80;2.50;;;;;;;25.82;70.24;97169.00;5036258;28;20213;-30
2023/08/26 05:24:53;;;;;;;3.90;3.20;;;;;;;25.80;71.38;97155.25;5035208;28;20205;-29
2023/08/26 05:27:22;;;;;;;3.53;3.23;;;;;;;25.81;72.59;97157.00;5035768;28;20205;-28
2023/08/26 05:29:49;;;;;;;4.50;4.10;;;;;;;25.80;73.48;97152.66;5033468;28;20674;-29
2023/08/26 05:32:15;;;;;;;5.17;4.20;;;;;;;25.79;75.29;97153.53;5032606;28;20259;-34
2023/08/26 05:34:42;;;;;;;6.03;4.47;;;;;;;25.78;76.99;97159.53;5034001;28;20661;-29
2023/08/26 05:37:09;;;;;;;5.10;4.60;;;;;;;25.76;77.91;97159.53;5032361;28;20211;-32
2023/08/26 05:39:35;;;;;;;4.90;4.50;;;;;;;25.76;78.59;97166.38;5030374;28;20283;-30
2023/08/26 05:42:02;;;;;;;7.13;4.67;;;;;;;25.75;79.12;97164.66;5030413;28;20212;-28
2023/08/26 05:44:28;;;;;;;9.17;4.87;;;;;;;25.75;78.15;97167.25;5032721;28;20308;-28
2023/08/26 05:46:55;;;;;;;8.13;4.67;;;;;;;25.74;76.84;97160.34;5032143;28;20228;-28
2023/08/26 05:49:22;;;;;;;6.90;4.37;;;;;;;25.67;76.00;97151.75;5030915;28;20790;-28
2023/08/26 05:51:48;;;;;;;4.77;4.17;;;;;;;25.75;75.30;97162.09;5032595;28;20308;-38
2023/08/26 05:54:15;;;;;;;6.60;4.27;;;;;;;25.75;74.72;97167.25;5030879;28;20630;-30
2023/08/26 05:56:41;;;;;;;6.17;3.80;;;;;;;25.75;74.59;97160.38;5037112;28;20237;-29
2023/08/26 05:59:08;;;;;;;5.00;4.00;;;;;;;25.76;73.84;97166.38;5028593;28;20271;-31
2023/08/26 06:01:35;;;;;;;5.27;4.10;;;;;;;25.79;73.62;97166.41;5030123;28;20213;-29
2023/08/26 06:04:01;;;;;;;7.00;4.50;;;;;;;25.79;73.08;97172.44;5036753;28;20486;-28
2023/08/26 06:06:29;;;;;;;4.27;3.80;;;;;;;25.80;72.94;97174.13;5032193;28;21239;-31
2023/08/26 06:08:56;;;;;;;5.20;4.07;;;;;;;25.79;72.54;97182.72;5032307;28;20221;-28
2023/08/26 06:11:24;;;;;;;5.10;4.07;;;;;;;25.82;72.23;97184.44;5033333;28;20302;-30
2023/08/26 06:13:51;;;;;;;4.30;3.90;;;;;;;25.82;72.02;97187.91;5030771;28;20240;-29
2023/08/26 06:16:20;;;;;;;4.10;3.70;;;;;;;25.83;72.08;97175.84;5030462;28;20209;-30
2023/08/26 06:18:47;;;;;;;4.57;3.90;;;;;;;25.84;71.68;97172.47;5028628;28;20202;-33
2023/08/26 06:21:13;;;;;;;4.40;3.83;;;;;;;25.83;71.49;97175.84;5032165;28;20248;-29
2023/08/26 06:23:40;;;;;;;5.87;3.87;;;;;;;25.84;71.46;97175.88;5029967;28;20209;-34
2023/08/26 06:26:06;;;;;;;4.40;4.00;;;;;;;25.85;71.07;97192.19;5030399;28;20232;-30
2023/08/26 06:28:33;;;;;;;4.77;3.80;;;;;;;25.85;71.15;97187.03;5032271;28;20233;-28
2023/08/26 06:31:00;;;;;;;4.33;3.80;;;;;;;25.86;70.99;97191.31;5032821;28;20228;-29
2023/08/26 06:33:27;;;;;;;4.07;3.77;;;;;;;25.86;70.76;97196.47;5029117;28;20217;-30
2023/08/26 06:35:54;;;;;;;5.93;4.10;;;;;;;25.87;70.57;97188.75;5029636;28;20228;-28
2023/08/26 06:38:20;;;;;;;3.77;3.43;;;;;;;25.87;70.48;97186.19;5029273;28;20477;-28
2023/08/26 06:40:56;;;;;;;4.73;3.83;;;;;;;25.87;70.50;97191.34;5030236;28;20662;-28
2023/08/26 06:43:23;;;;;;;4.83;3.63;;;;;;;25.88;70.21;97194.78;5034023;28;20632;-32
2023/08/26 06:45:50;;;;;;;3.83;3.53;;;;;;;25.88;70.31;97192.22;5028303;28;20209;-29
2023/08/26 06:48:16;;;;;;;5.00;4.00;;;;;;;25.88;70.29;97194.78;5033121;28;20205;-32
2023/08/26 06:50:49;;;;;;;3.70;3.40;;;;;;;25.88;70.16;97184.50;5035159;28;20233;-29
2023/08/26 06:53:20;;;;;;;4.27;3.70;;;;;;;25.88;70.15;97176.75;5032839;28;20202;-28
2023/08/26 06:55:48;;;;;;;3.80;3.40;;;;;;;25.90;69.87;97177.66;5034487;28;20221;-29
2023/08/26 06:58:15;;;;;;;3.93;3.50;;;;;;;25.89;69.91;97169.06;5033170;28;20300;-31
2023/08/26 07:00:42;;;;;;;3.50;3.20;;;;;;;25.90;69.64;97172.50;5032943;28;20665;-28
2023/08/26 07:03:10;;;;;;;3.63;3.33;;;;;;;25.89;69.58;97173.31;5033145;28;20247;-35
2023/08/26 07:05:38;;;;;;;3.80;3.40;;;;;;;25.88;69.71;97169.03;5029280;28;20260;-32
2023/08/26 07:08:05;;;;;;;5.90;3.03;;;;;;;25.89;69.51;97175.91;5031334;28;20567;-31
2023/08/26 07:10:31;;;;;;;5.60;3.73;;;;;;;25.88;69.46;97177.63;5031424;28;20229;-28
2023/08/26 07:12:58;;;;;;;3.90;3.60;;;;;;;25.89;69.52;97181.91;5032667;28;20667;-28
2023/08/26 07:15:25;;;;;;;3.22;3.03;;;;;;;25.90;69.20;97178.47;5031539;28;20217;-29
2023/08/26 07:17:52;;;;;;;3.60;3.30;;;;;;;25.90;69.12;97190.53;5030558;28;20201;-32
2023/08/26 07:20:19;;;;;;;3.50;3.17;;;;;;;25.90;69.24;97177.66;5029705;28;20261;-30
2023/08/26 07:22:46;;;;;;;3.88;3.30;;;;;;;25.90;69.24;97170.75;5030379;28;20212;-28
2023/08/26 07:25:13;;;;;;;3.20;3.00;;;;;;;25.90;69.09;97172.50;5032222;28;20529;-29
2023/08/26 07:27:40;;;;;;;3.70;3.40;;;;;;;25.89;69.18;97187.06;5032284;28;20552;-28
2023/08/26 07:30:07;;;;;;;3.63;3.15;;;;;;;25.90;69.11;97188.78;5032854;28;20765;-29
2023/08/26 07:32:35;;;;;;;3.75;3.30;;;;;;;25.90;69.13;97196.50;5031215;28;20274;-32
2023/08/26 07:35:02;;;;;;;3.38;3.17;;;;;;;25.91;69.12;97192.22;5031745;28;20717;-32
2023/08/26 07:37:29;;;;;;;3.40;3.10;;;;;;;25.91;68.95;97185.38;5029666;28;20209;-30
2023/08/26 07:39:56;;;;;;;3.58;3.28;;;;;;;25.91;68.71;97184.50;5033193;28;20225;-31
2023/08/26 07:42:23;;;;;;;3.13;2.90;;;;;;;25.91;69.05;97195.69;5031923;28;20574;-31
2023/08/26 07:44:50;;;;;;;3.47;3.17;;;;;;;25.91;68.54;97193.09;5032043;28;20197;-31
2023/08/26 07:47:17;;;;;;;3.47;2.83;;;;;;;25.92;68.77;97199.09;5032415;28;20245;-30
2023/08/26 07:49:44;;;;;;;3.30;3.00;;;;;;;25.92;68.44;97197.41;5031949;28;20236;-28
2023/08/26 07:52:10;;;;;;;3.20;3.00;;;;;;;25.92;68.32;97201.66;5029996;28;20205;-31
2023/08/26 07:54:37;;;;;;;3.43;3.07;;;;;;;25.92;68.54;97202.53;5029207;28;20225;-28
2023/08/26 07:57:03;;;;;;;2.95;2.75;;;;;;;25.93;68.60;97200.84;5034175;28;20197;-29
2023/08/26 07:59:30;;;;;;;3.53;3.22;;;;;;;25.92;68.23;97194.81;5035085;28;20235;-35
2023/08/26 08:01:57;;;;;;;2.97;2.78;;;;;;;25.90;68.63;97196.50;5034793;28;21120;-30
2023/08/26 08:04:23;;;;;;;3.03;2.83;;;;;;;25.91;68.30;97189.66;5035598;28;20204;-30
2023/08/26 08:06:50;;;;;;;3.15;2.92;;;;;;;25.92;68.50;97188.78;5035605;28;20588;-28
2023/08/26 08:09:16;;;;;;;2.70;2.50;;;;;;;25.91;68.38;97185.38;5035971;28;20282;-33
2023/08/26 08:11:43;;;;;;;2.80;2.60;;;;;;;25.93;68.28;97182.81;5034534;28;20240;-35
2023/08/26 08:14:10;;;;;;;3.20;2.90;;;;;;;25.92;68.41;97179.38;5037622;28;20213;-28
2023/08/26 08:16:36;;;;;;;2.80;2.60;;;;;;;25.91;68.12;97179.34;5035720;28;20284;-28
2023/08/26 08:19:03;;;;;;;2.90;2.70;;;;;;;25.92;68.14;97186.22;5034299;28;20429;-29
2023/08/26 08:21:30;;;;;;;2.70;2.50;;;;;;;25.92;68.03;97186.22;5036950;28;20205;-28
2023/08/26 08:23:56;;;;;;;3.17;2.87;;;;;;;25.89;68.38;97178.47;5037971;28;20201;-28
2023/08/26 08:26:23;;;;;;;2.90;2.70;;;;;;;25.93;68.09;97190.53;5037475;28;20237;-28
2023/08/26 08:28:49;;;;;;;3.10;2.90;;;;;;;25.92;68.17;97194.81;5032315;28;20650;-31
2023/08/26 08:31:16;;;;;;;3.20;2.90;;;;;;;25.91;67.39;97174.22;5036331;28;20611;-34
2023/08/26 08:33:43;;;;;;;3.27;2.80;;;;;;;25.90;66.56;97186.22;5037438;28;20212;-28
2023/08/26 08:36:10;;;;;;;3.08;2.88;;;;;;;25.88;66.69;97190.50;5051874;22;20223;-25
2023/08/26 08:38:37;;;;;;;3.28;2.67;;;;;;;25.91;67.33;97192.22;5005068;28;20199;-25
2023/08/26 08:41:03;;;;;;;2.83;2.63;;;;;;;25.90;67.04;97186.22;5011868;28;20294;-25
2023/08/26 08:43:30;;;;;;;2.88;2.67;;;;;;;25.89;67.47;97170.75;5001672;28;20685;-25
2023/08/26 08:45:57;;;;;;;2.60;2.40;;;;;;;25.92;67.67;97187.09;5003891;28;20314;-25
2023/08/26 08:48:24;;;;;;;3.40;3.10;;;;;;;25.90;68.21;97185.38;4991846;28;20297;-25
2023/08/26 08:50:51;;;;;;;3.07;2.77;;;;;;;25.88;68.23;97176.75;4991863;28;20298;-25
2023/08/26 08:53:17;;;;;;;3.38;2.80;;;;;;;25.93;69.21;97193.13;4996292;28;20294;-25
2023/08/26 08:55:44;;;;;;;3.70;3.10;;;;;;;25.93;70.03;97193.13;4994991;28;20349;-25
2023/08/26 08:58:12;;;;;;;3.53;3.17;;;;;;;25.92;69.99;97189.66;4993479;28;20243;-25
2023/08/26 09:00:38;;;;;;;3.40;3.00;;;;;;;25.92;70.31;97187.09;4980483;28;20198;-25
2023/08/26 09:03:06;;;;;;;4.37;3.30;;;;;;;25.89;70.14;97176.78;4977718;28;20203;-27
2023/08/26 09:05:33;;;;;;;4.63;3.15;;;;;;;25.92;70.10;97184.53;4995294;28;20669;-26
2023/08/26 09:08:00;;;;;;;4.07;2.80;;;;;;;25.83;69.82;97170.72;4991603;28;20226;-25
2023/08/26 09:10:26;;;;;;;3.17;2.73;;;;;;;25.89;70.37;97188.78;4976747;28;20683;-25
2023/08/26 09:12:53;;;;;;;3.63;2.90;;;;;;;25.91;70.23;97187.94;4968806;28;20677;-25
2023/08/26 09:15:19;;;;;;;5.57;3.10;;;;;;;25.90;69.88;97180.22;4993618;28;20637;-25
2023/08/26 09:17:46;;;;;;;4.83;3.03;;;;;;;25.89;69.86;97179.34;4989649;28;20573;-36
2023/08/26 09:20:13;;;;;;;3.28;2.95;;;;;;;25.87;70.00;97177.63;4984951;28;20593;-34
2023/08/26 09:22:40;;;;;;;5.18;2.65;;;;;;;25.89;69.94;97178.47;4989829;28;20215;-33
2023/08/26 09:25:07;;;;;;;3.67;3.10;;;;;;;25.89;69.92;97173.31;4988356;28;20682;-25
2023/08/26 09:27:34;;;;;;;3.50;3.20;;;;;;;25.86;69.94;97178.47;4990174;28;20246;-25
2023/08/26 09:30:02;;;;;;;3.27;2.90;;;;;;;25.88;69.78;97175.06;4992097;28;20199;-25
2023/08/26 09:32:32;;;;;;;3.97;2.80;;;;;;;25.88;70.04;97181.91;4989807;28;20636;-25
2023/08/26 09:35:09;;;;;;;3.13;2.83;;;;;;;25.87;70.08;97178.47;4993356;28;20226;-25
2023/08/26 09:37:36;;;;;;;4.73;2.87;;;;;;;25.85;70.12;97175.03;4989871;28;20277;-25
2023/08/26 09:40:07;;;;;;;5.60;3.10;;;;;;;25.87;70.11;97180.19;4998366;28;20637;-25
2023/08/26 09:42:36;;;;;;;2.80;2.50;;;;;;;25.87;70.01;97175.06;4999589;28;20301;-25
2023/08/26 09:45:07;;;;;;;2.90;2.70;;;;;;;25.87;70.10;97182.78;4980167;28;20203;-25
2023/08/26 09:47:36;;;;;;;4.68;3.00;;;;;;;25.86;70.23;97174.19;4991599;28;20226;-25
2023/08/26 09:50:03;;;;;;;3.50;2.73;;;;;;;25.85;70.00;97169.91;4999225;28;20222;-25
2023/08/26 09:52:33;;;;;;;3.27;2.80;;;;;;;25.85;69.74;97166.44;5003490;28;20636;-25
2023/08/26 09:54:59;;;;;;;3.17;2.87;;;;;;;25.82;69.59;97143.25;4989611;28;20286;-25
2023/08/26 09:57:26;;;;;;;4.73;2.60;;;;;;;25.84;69.53;97150.13;4973225;28;20219;-25
2023/08/26 09:59:52;;;;;;;4.17;2.70;;;;;;;25.81;69.72;97138.97;4998995;28;20202;-25
2023/08/26 10:02:22;;;;;;;3.10;2.80;;;;;;;25.82;69.96;97132.97;4993385;28;20616;-25
2023/08/26 10:04:53;;;;;;;3.88;2.50;;;;;;;25.80;69.95;97134.66;4995024;28;20202;-25
2023/08/26 10:07:19;;;;;;;3.10;2.78;;;;;;;25.73;70.13;97132.91;4990157;28;20243;-25
2023/08/26 10:10:02;;;;;;;3.25;2.75;;;;;;;25.80;70.12;97143.25;4971168;28;20238;-26
2023/08/26 10:12:33;;;;;;;4.47;2.65;;;;;;;25.72;70.16;97124.31;4999344;28;20202;-25
2023/08/26 10:15:01;;;;;;;2.70;2.50;;;;;;;25.80;70.24;97132.94;4981079;28;20696;-25
2023/08/26 10:17:28;;;;;;;3.17;2.70;;;;;;;25.78;69.96;97121.78;4996237;28;20274;-25
2023/08/26 10:19:56;;;;;;;3.33;2.65;;;;;;;25.80;70.10;97112.34;4995504;28;20249;-25
2023/08/26 10:22:23;;;;;;;3.30;2.90;;;;;;;25.81;70.22;97102.94;4989893;28;20203;-25
2023/08/26 10:24:49;;;;;;;2.70;2.43;;;;;;;25.81;69.54;97105.50;4993317;28;20285;-25
2023/08/26 10:27:16;;;;;;;4.35;2.80;;;;;;;25.77;68.54;97106.31;4992643;28;20305;-25
2023/08/26 10:29:43;;;;;;;3.93;2.47;;;;;;;25.79;68.54;97097.78;4981514;28;20704;-25
2023/08/26 10:32:17;;;;;;;2.97;2.60;;;;;;;25.77;68.83;97094.31;4989140;28;20203;-25
2023/08/26 10:34:53;;;;;;;3.97;3.17;;;;;;;25.78;68.95;97095.19;4991024;28;20199;-25
2023/08/26 10:37:22;;;;;;;2.93;2.70;;;;;;;25.76;69.00;97095.19;4990180;28;20225;-25
2023/08/26 10:39:49;;;;;;;3.85;2.65;;;;;;;25.76;68.89;97094.31;4989389;28;20214;-25
2023/08/26 10:42:18;;;;;;;2.93;2.50;;;;;;;25.74;68.89;97094.28;4992304;28;20285;-25
2023/08/26 10:44:46;;;;;;;4.30;2.65;;;;;;;25.73;69.00;97094.28;5003645;28;20206;-25
2023/08/26 10:47:35;;;;;;;3.28;2.58;;;;;;;25.72;69.01;97083.13;4993028;28;20226;-25
2023/08/26 10:50:20;;;;;;;5.57;2.70;;;;;;;25.71;68.94;97080.53;4990997;28;20195;-25
2023/08/26 10:52:56;;;;;;;5.47;2.87;;;;;;;25.70;69.05;97078.81;4993269;28;20210;-25
2023/08/26 10:55:26;;;;;;;2.90;2.60;;;;;;;25.68;68.96;97073.66;4990946;28;20254;-25
2023/08/26 10:58:15;;;;;;;6.43;2.40;;;;;;;25.68;69.25;97076.25;4993397;28;20673;-25
2023/08/26 11:00:44;;;;;;;4.27;2.37;;;;;;;25.67;69.02;97077.09;5003341;28;20228;-25
2023/08/26 11:03:11;;;;;;;2.90;2.60;;;;;;;25.67;69.02;97083.94;4999079;28;20269;-25
2023/08/26 11:05:43;;;;;;;2.60;2.40;;;;;;;25.66;69.41;97085.66;4990895;28;20351;-25
2023/08/26 11:08:10;;;;;;;2.90;2.70;;;;;;;25.65;69.06;97080.50;4986732;28;20739;-25
2023/08/26 11:10:41;;;;;;;2.60;2.40;;;;;;;25.65;69.19;97080.50;4991672;28;20199;-25
2023/08/26 11:13:09;;;;;;;5.67;2.53;;;;;;;25.63;69.26;97067.63;4986479;28;20210;-25
2023/08/26 11:15:37;;;;;;;2.60;2.40;;;;;;;25.63;69.38;97070.19;4981515;28;20215;-25
2023/08/26 11:18:07;;;;;;;4.40;2.70;;;;;;;25.63;69.19;97064.19;4979523;28;20314;-25
2023/08/26 11:20:34;;;;;;;2.63;2.40;;;;;;;25.63;68.90;97066.75;4993956;28;20199;-25
2023/08/26 11:23:02;;;;;;;2.78;2.50;;;;;;;25.62;68.91;97071.06;4991021;28;20195;-25
2023/08/26 11:25:29;;;;;;;3.00;2.47;;;;;;;25.62;68.93;97081.34;4997195;28;20226;-25
2023/08/26 11:28:05;;;;;;;2.60;2.40;;;;;;;25.58;68.98;97071.88;4982980;28;20754;-25
2023/08/26 11:30:41;;;;;;;2.47;2.27;;;;;;;25.61;69.18;97073.63;4991926;28;20248;-25
2023/08/26 11:33:12;;;;;;;2.50;2.30;;;;;;;25.60;69.24;97064.16;4996877;28;20209;-25
2023/08/26 11:35:39;;;;;;;2.65;2.45;;;;;;;25.58;69.35;97063.31;4993523;28;20314;-25